Kinrikimaru No.5 — JL6558 — position and weather

sailwx.info

Track history (hours):
 
Tides and Currents Weather Stations Pressure Air Temp Water Temp Dewpoint Dewpoint Depression Visibility Wind Speed Wind Dir Waves Ship Positions

Kinrikimaru No.5

Last reported at 2017-Nov-16 18:34 UTC. Time now 2017-Nov-21 01:08 UTC.
Position N 34°52' E 139°49'.

Length 75 m; draft 3.8 m.

Type: Cargo ship. MMSI: 431501278.

Date/timePositionNaut miles runAvg speedWind from/ knotsBaromVisibWave heightAir tempDewpointWater temp
2017-Nov-16 18:34N 34°52' E 139°49'311.5
2017-Nov-16 18:19N 34°54' E 139°46'411.0
2017-Nov-16 18:00N 34°57' E 139°44'5 9.7
2017-Nov-16 17:31N 35°02' E 139°44'611.6
2017-Nov-16 17:00N 35°08' E 139°45'611.8
2017-Nov-16 16:30N 35°14' E 139°46'510.7
2017-Nov-16 16:01N 35°18' E 139°44'510.6
2017-Nov-16 15:30N 35°24' E 139°43'611.1
2017-Nov-16 15:00N 35°28' E 139°48'611.5
2017-Nov-16 14:31N 35°31' E 139°54'2 0.2
2017-Nov-16 03:36N 35°31' E 139°56'111.4
2017-Nov-16 03:30N 35°30' E 139°55'611.2
2017-Nov-16 03:00N 35°27' E 139°49'611.1
2017-Nov-16 02:30N 35°22' E 139°45'510.3
2017-Nov-16 02:00N 35°17' E 139°45'610.9
2017-Nov-16 01:30N 35°12' E 139°47'511.1
2017-Nov-16 01:00N 35°06' E 139°46'510.9
2017-Nov-16 00:30N 35°01' E 139°44'  
Track history (hours):
 
Tides and Currents Weather Stations Pressure Air Temp Water Temp Dewpoint Dewpoint Depression Visibility Wind Speed Wind Dir Waves Ship Positions

Kinrikimaru No.5

Last reported at 2017-Nov-16 18:34 UTC. Time now 2017-Nov-21 01:08 UTC.
Position N 34°52' E 139°49'.

Length 75 m; draft 3.8 m.

Type: Cargo ship. MMSI: 431501278.

Date/timePositionNaut miles runAvg speedWind from/ knotsBaromVisibWave heightAir tempDewpointWater temp
2017-Nov-16 18:34N 34°52' E 139°49'311.5
2017-Nov-16 18:19N 34°54' E 139°46'411.0
2017-Nov-16 18:00N 34°57' E 139°44'5 9.7
2017-Nov-16 17:31N 35°02' E 139°44'611.6
2017-Nov-16 17:00N 35°08' E 139°45'611.8
2017-Nov-16 16:30N 35°14' E 139°46'510.7
2017-Nov-16 16:01N 35°18' E 139°44'510.6
2017-Nov-16 15:30N 35°24' E 139°43'611.1
2017-Nov-16 15:00N 35°28' E 139°48'611.5
2017-Nov-16 14:31N 35°31' E 139°54'2 0.2
2017-Nov-16 03:36N 35°31' E 139°56'111.4
2017-Nov-16 03:30N 35°30' E 139°55'611.2
2017-Nov-16 03:00N 35°27' E 139°49'611.1
2017-Nov-16 02:30N 35°22' E 139°45'510.3
2017-Nov-16 02:00N 35°17' E 139°45'610.9
2017-Nov-16 01:30N 35°12' E 139°47'511.1
2017-Nov-16 01:00N 35°06' E 139°46'510.9
2017-Nov-16 00:30N 35°01' E 139°44'  

Dump ship's entire track history